Time;durP1;ratioP1;P1;durP2;ratioP2;P2;SDS_P1;SDS_P2;PMS_P1;PMS_P2;Temp;Humidity;BMP_temperature;BMP_pressure;BME280_temperature;BME280_humidity;BME280_pressure;Samples;Min_cycle;Max_cycle;Signal;HPM_P1;HPM_P2
2021/05/15 00:01:12;;;;;;;2.87;1.40;;;;;;;8.88;81.69;97367.78;5004480;28;20239;-69
2021/05/15 00:03:39;;;;;;;1.60;1.50;;;;;;;8.92;82.95;97364.63;5005141;28;20239;-71
2021/05/15 00:06:06;;;;;;;1.70;1.60;;;;;;;9.09;80.71;97368.06;5003373;28;20236;-71
2021/05/15 00:08:32;;;;;;;1.40;1.30;;;;;;;9.02;80.98;97366.25;5005160;28;20251;-70
2021/05/15 00:10:58;;;;;;;1.30;1.20;;;;;;;9.13;80.42;97371.19;5002397;28;20713;-71
2021/05/15 00:13:25;;;;;;;1.97;1.87;;;;;;;9.12;80.03;97374.81;5004393;28;20674;-72
2021/05/15 00:15:51;;;;;;;3.23;2.10;;;;;;;9.13;79.56;97371.19;5004362;28;20208;-72
2021/05/15 00:18:17;;;;;;;3.70;2.07;;;;;;;9.11;80.29;97378.44;5004705;28;20637;-71
2021/05/15 00:20:45;;;;;;;2.33;2.10;;;;;;;9.14;80.53;97367.53;5004950;28;20228;-71
2021/05/15 00:23:11;;;;;;;2.20;2.10;;;;;;;8.95;81.68;97368.75;5004104;28;20205;-71
2021/05/15 00:25:37;;;;;;;2.40;2.20;;;;;;;9.06;81.43;97370.22;5001770;28;20220;-71
2021/05/15 00:28:04;;;;;;;1.77;1.67;;;;;;;9.03;81.95;97366.06;5004656;28;21141;-69
2021/05/15 00:30:30;;;;;;;2.67;2.47;;;;;;;8.92;82.41;97367.28;5004672;28;20212;-68
2021/05/15 00:32:56;;;;;;;2.70;2.50;;;;;;;8.93;82.98;97368.09;5004486;28;20204;-72
2021/05/15 00:35:23;;;;;;;1.60;1.50;;;;;;;8.97;83.37;97364.13;5002395;28;20807;-71
2021/05/15 00:37:50;;;;;;;2.23;2.13;;;;;;;8.93;82.18;97371.56;5005017;28;20205;-71
2021/05/15 00:40:17;;;;;;;2.00;1.80;;;;;;;8.85;83.24;97366.28;5003436;28;20323;-71
2021/05/15 00:42:44;;;;;;;4.10;2.60;;;;;;;8.93;83.43;97362.81;5004554;28;20205;-71
2021/05/15 00:45:13;;;;;;;1.73;1.63;;;;;;;8.94;82.93;97365.28;5003488;28;20213;-68
2021/05/15 00:47:39;;;;;;;1.97;1.77;;;;;;;8.96;83.53;97362.47;5003737;28;20693;-71
2021/05/15 00:50:06;;;;;;;1.60;1.50;;;;;;;9.01;83.97;97360.13;5002268;28;20266;-70
2021/05/15 00:52:35;;;;;;;1.77;1.67;;;;;;;8.98;83.85;97366.59;5001547;28;20260;-71
2021/05/15 00:55:07;;;;;;;2.17;2.00;;;;;;;9.02;83.57;97366.25;5002891;28;20205;-71
2021/05/15 00:57:33;;;;;;;2.90;2.20;;;;;;;9.16;81.81;97370.84;5003831;28;20205;-71
2021/05/15 00:59:59;;;;;;;2.53;2.10;;;;;;;9.11;82.17;97370.53;5000384;28;20220;-72
2021/05/15 01:02:26;;;;;;;1.30;1.30;;;;;;;9.11;82.39;97368.72;5003707;28;20299;-70
2021/05/15 01:04:52;;;;;;;1.40;1.30;;;;;;;9.01;82.90;97367.25;5004296;28;20205;-71
2021/05/15 01:07:18;;;;;;;1.67;1.57;;;;;;;8.94;82.71;97362.66;5002781;28;20331;-70
2021/05/15 01:09:44;;;;;;;1.40;1.40;;;;;;;8.86;83.16;97365.28;5004267;28;20605;-70
2021/05/15 01:12:11;;;;;;;1.53;1.43;;;;;;;8.76;83.44;97357.56;5003311;28;20228;-67
2021/05/15 01:14:39;;;;;;;2.00;1.57;;;;;;;8.69;84.63;97365.34;5002321;28;20223;-69
2021/05/15 01:17:07;;;;;;;1.70;1.60;;;;;;;8.62;85.37;97359.06;5004327;28;20219;-71
2021/05/15 01:19:34;;;;;;;1.70;1.60;;;;;;;8.53;85.55;97362.72;5002755;28;20205;-71
2021/05/15 01:22:04;;;;;;;1.60;1.43;;;;;;;8.48;85.94;97360.53;4999822;28;20243;-71
2021/05/15 01:24:30;;;;;;;2.00;1.90;;;;;;;8.51;86.25;97367.31;5003190;28;20205;-71
2021/05/15 01:26:57;;;;;;;2.40;2.30;;;;;;;8.49;86.80;97359.59;5004465;28;20720;-71
2021/05/15 01:29:23;;;;;;;4.70;3.10;;;;;;;8.36;87.54;97364.50;5002816;28;20213;-71
2021/05/15 01:31:49;;;;;;;2.30;2.20;;;;;;;8.29;87.91;97366.97;5003081;28;20333;-71
2021/05/15 01:34:15;;;;;;;2.37;2.23;;;;;;;8.34;87.65;97364.66;5002830;28;20764;-71
2021/05/15 01:36:43;;;;;;;2.37;2.00;;;;;;;8.28;88.13;97362.69;5003117;28;20217;-71
2021/05/15 01:39:11;;;;;;;1.97;1.87;;;;;;;8.22;88.55;97360.72;5003560;28;20213;-71
2021/05/15 01:41:37;;;;;;;2.00;1.80;;;;;;;8.25;88.79;97361.19;5000249;28;20225;-71
2021/05/15 01:44:04;;;;;;;2.30;1.97;;;;;;;8.20;89.53;97370.63;5000407;28;20483;-71
2021/05/15 01:46:31;;;;;;;2.40;2.20;;;;;;;8.02;90.51;97368.94;5001782;28;20255;-72
2021/05/15 01:48:57;;;;;;;4.03;3.80;;;;;;;8.08;90.95;97365.63;5003765;28;20673;-71
2021/05/15 01:51:23;;;;;;;2.97;2.77;;;;;;;7.96;91.36;97373.06;5003315;28;20734;-71
2021/05/15 01:53:51;;;;;;;3.83;2.63;;;;;;;7.78;92.77;97375.84;5002082;28;20216;-70
2021/05/15 01:56:20;;;;;;;2.33;2.23;;;;;;;7.76;93.50;97369.06;5003411;28;20232;-68
2021/05/15 01:58:47;;;;;;;2.03;1.93;;;;;;;7.71;93.83;97374.81;5002193;28;20247;-70
2021/05/15 02:01:13;;;;;;;2.70;2.50;;;;;;;7.70;94.45;97375.78;5002295;28;20236;-67
2021/05/15 02:03:41;;;;;;;2.80;2.60;;;;;;;7.78;94.34;97372.34;5001589;28;20209;-71
2021/05/15 02:06:08;;;;;;;2.77;1.90;;;;;;;7.70;95.60;97369.72;5001301;28;20229;-71
2021/05/15 02:08:34;;;;;;;1.97;1.80;;;;;;;7.97;94.30;97365.97;5001483;28;20216;-72
2021/05/15 02:11:01;;;;;;;1.93;1.83;;;;;;;8.02;93.25;97366.28;5001551;28;20225;-71
2021/05/15 02:13:29;;;;;;;2.37;2.00;;;;;;;8.01;94.29;97359.38;5003745;28;20304;-69
2021/05/15 02:15:56;;;;;;;1.63;1.53;;;;;;;7.92;95.81;97363.81;5001875;28;20339;-70
2021/05/15 02:18:23;;;;;;;2.23;1.93;;;;;;;8.01;95.11;97362.00;5002753;28;20205;-69
2021/05/15 02:20:50;;;;;;;2.30;2.10;;;;;;;8.11;93.33;97362.66;5002706;28;20224;-70
2021/05/15 02:23:17;;;;;;;2.80;2.07;;;;;;;8.15;92.93;97362.38;5002448;28;20209;-71
2021/05/15 02:25:45;;;;;;;2.37;2.07;;;;;;;8.32;91.38;97368.44;5002408;28;20221;-72
2021/05/15 02:28:11;;;;;;;3.30;2.60;;;;;;;8.32;90.94;97368.44;4998399;28;20244;-69
2021/05/15 02:30:39;;;;;;;1.90;1.80;;;;;;;8.28;91.81;97360.06;5002614;28;20228;-70
2021/05/15 02:33:05;;;;;;;2.23;2.13;;;;;;;8.32;91.16;97365.81;4998859;28;20216;-71
2021/05/15 02:35:31;;;;;;;2.47;2.27;;;;;;;8.29;92.50;97369.63;5000242;28;20243;-70
2021/05/15 02:37:58;;;;;;;1.93;1.83;;;;;;;8.41;91.39;97362.19;5002689;28;20205;-68
2021/05/15 02:40:25;;;;;;;1.70;1.60;;;;;;;8.44;90.75;97371.59;5002459;28;20698;-67
2021/05/15 02:42:52;;;;;;;2.10;1.70;;;;;;;8.22;92.09;97368.63;5001858;28;20258;-71
2021/05/15 02:45:20;;;;;;;1.83;1.73;;;;;;;8.22;92.19;97368.63;5000373;28;20324;-71
2021/05/15 02:47:47;;;;;;;2.10;1.90;;;;;;;8.25;91.77;97365.66;5000945;28;20435;-70
2021/05/15 02:50:15;;;;;;;1.70;1.67;;;;;;;8.16;93.77;97364.81;5004197;28;20554;-71
2021/05/15 02:52:41;;;;;;;1.90;1.80;;;;;;;8.21;93.89;97359.06;5005642;28;21109;-71
2021/05/15 02:55:10;;;;;;;1.93;1.80;;;;;;;8.23;92.86;97360.53;5004387;28;20208;-70
2021/05/15 02:57:36;;;;;;;2.40;2.07;;;;;;;8.26;92.79;97359.41;5006254;28;20677;-70
2021/05/15 03:00:05;;;;;;;1.50;1.50;;;;;;;8.28;92.13;97356.56;5005634;28;20205;-71
2021/05/15 03:02:31;;;;;;;1.83;1.67;;;;;;;8.31;92.11;97356.25;5004451;28;20237;-71
2021/05/15 03:04:58;;;;;;;1.67;1.67;;;;;;;8.31;92.15;97351.81;5005991;28;20204;-70
2021/05/15 03:07:24;;;;;;;1.97;1.87;;;;;;;8.31;92.51;97343.03;5003039;28;20236;-69
2021/05/15 03:09:51;;;;;;;1.93;1.80;;;;;;;8.31;92.24;97343.88;5004875;28;20259;-71
2021/05/15 03:12:17;;;;;;;1.80;1.70;;;;;;;8.52;91.09;97345.19;5005320;28;20228;-70
2021/05/15 03:14:43;;;;;;;2.37;2.07;;;;;;;8.40;91.50;97350.81;5003408;28;20211;-70
2021/05/15 03:17:10;;;;;;;2.67;1.90;;;;;;;8.34;92.09;97343.56;5004859;28;20209;-69
2021/05/15 03:19:36;;;;;;;2.13;1.93;;;;;;;8.49;91.34;97351.66;5004055;28;20697;-70
2021/05/15 03:22:04;;;;;;;1.77;1.67;;;;;;;8.50;91.14;97340.09;5005822;28;20373;-71
2021/05/15 03:24:31;;;;;;;1.90;1.80;;;;;;;8.53;91.04;97346.88;5003007;28;20216;-70
2021/05/15 03:26:58;;;;;;;2.03;1.93;;;;;;;8.40;93.15;97339.44;5002142;28;20224;-71
2021/05/15 03:29:24;;;;;;;3.17;1.93;;;;;;;8.39;93.49;97340.41;5004817;28;20237;-72
2021/05/15 03:31:50;;;;;;;2.60;1.90;;;;;;;8.33;94.84;97343.69;5003786;28;20225;-71
2021/05/15 03:34:16;;;;;;;2.60;1.73;;;;;;;8.54;91.66;97353.81;5005134;28;20217;-70
2021/05/15 03:36:43;;;;;;;1.80;1.70;;;;;;;8.33;92.42;97343.69;5002155;28;20201;-71
2021/05/15 03:39:17;;;;;;;1.87;1.77;;;;;;;8.42;92.56;97350.66;5004134;28;20205;-71
2021/05/15 03:41:43;;;;;;;2.20;1.87;;;;;;;8.56;91.79;97351.81;5002712;28;20226;-71
2021/05/15 03:44:09;;;;;;;2.10;1.90;;;;;;;8.45;92.58;97347.66;5004061;28;20586;-71
2021/05/15 03:46:36;;;;;;;1.90;1.80;;;;;;;8.38;95.62;97350.16;5004641;28;20713;-71
2021/05/15 03:49:02;;;;;;;3.07;1.93;;;;;;;8.33;96.96;97347.19;5003090;28;20213;-71
2021/05/15 03:51:28;;;;;;;2.03;1.83;;;;;;;8.24;98.29;97353.47;5005082;28;20228;-70
2021/05/15 03:53:55;;;;;;;1.70;1.60;;;;;;;8.30;99.10;97352.78;5002349;28;20221;-70
2021/05/15 03:56:22;;;;;;;3.03;2.23;;;;;;;8.20;99.80;97357.41;5004095;28;20205;-69
2021/05/15 03:58:48;;;;;;;2.87;2.67;;;;;;;8.32;99.09;97357.88;5003824;28;20205;-70
2021/05/15 04:01:14;;;;;;;1.80;1.70;;;;;;;8.37;98.71;97356.41;5005070;28;20240;-69
2021/05/15 04:03:40;;;;;;;2.23;2.10;;;;;;;8.33;99.85;97357.75;5002660;28;20236;-72
2021/05/15 04:06:07;;;;;;;1.90;1.80;;;;;;;8.18;100.00;97357.56;5004795;28;20288;-70
2021/05/15 04:08:33;;;;;;;2.00;1.90;;;;;;;8.27;100.00;97361.03;5005277;28;20201;-70
2021/05/15 04:10:59;;;;;;;2.40;2.20;;;;;;;8.36;100.00;97353.97;5001482;28;20225;-70
2021/05/15 04:13:32;;;;;;;2.27;2.07;;;;;;;8.28;100.00;97357.41;5003125;28;20212;-71
2021/05/15 04:16:00;;;;;;;2.60;2.50;;;;;;;8.45;99.96;97360.03;5003353;28;20623;-73
2021/05/15 04:18:28;;;;;;;1.80;1.70;;;;;;;8.31;100.00;97364.16;5004325;28;20219;-72
2021/05/15 04:20:55;;;;;;;2.13;1.93;;;;;;;8.30;100.00;97359.88;5004222;28;20228;-72
2021/05/15 04:23:22;;;;;;;1.83;1.60;;;;;;;8.34;100.00;97356.75;5004640;28;20205;-71
2021/05/15 04:25:48;;;;;;;4.63;2.03;;;;;;;8.42;100.00;97358.56;5001742;28;20484;-72
2021/05/15 04:28:15;;;;;;;1.50;1.50;;;;;;;8.45;99.96;97360.88;5005060;28;20294;-72
2021/05/15 04:30:43;;;;;;;2.20;2.10;;;;;;;8.46;99.90;97365.16;5002748;28;20275;-71
2021/05/15 04:33:09;;;;;;;3.60;1.93;;;;;;;8.40;100.00;97371.13;5001936;28;20242;-71
2021/05/15 04:35:35;;;;;;;2.10;2.00;;;;;;;8.46;99.61;97361.69;4999853;28;20676;-72
2021/05/15 04:38:04;;;;;;;1.70;1.60;;;;;;;8.44;100.00;97366.31;5000988;28;20225;-68
2021/05/15 04:40:30;;;;;;;1.70;1.53;;;;;;;8.50;100.00;97366.50;5001775;28;20209;-69
2021/05/15 04:42:56;;;;;;;2.17;2.07;;;;;;;8.44;100.00;97367.16;5003231;28;20209;-67
2021/05/15 04:45:23;;;;;;;1.80;1.70;;;;;;;8.42;100.00;97376.22;5003871;28;20216;-68
2021/05/15 04:47:50;;;;;;;2.10;2.00;;;;;;;8.45;100.00;97382.00;5002990;28;20197;-68
2021/05/15 04:50:17;;;;;;;1.67;1.67;;;;;;;8.48;99.92;97373.75;5000733;28;20209;-68
2021/05/15 04:52:43;;;;;;;2.30;2.20;;;;;;;8.49;99.83;97371.91;5002032;28;20240;-69
2021/05/15 04:55:10;;;;;;;1.93;1.83;;;;;;;8.52;100.00;97366.31;5003495;28;20298;-68
2021/05/15 04:57:36;;;;;;;2.20;2.10;;;;;;;8.51;100.00;97375.25;5003735;28;20240;-69
2021/05/15 05:00:04;;;;;;;1.87;1.77;;;;;;;8.47;100.00;97365.97;5004190;28;20318;-68
2021/05/15 05:02:30;;;;;;;1.93;1.83;;;;;;;8.44;100.00;97363.66;5002877;28;20734;-68
2021/05/15 05:04:57;;;;;;;1.87;1.77;;;;;;;8.45;100.00;97373.25;5003904;28;20600;-69
2021/05/15 05:07:23;;;;;;;1.90;1.63;;;;;;;8.46;100.00;97372.25;5003145;28;20290;-67
2021/05/15 05:09:50;;;;;;;2.23;2.13;;;;;;;8.33;100.00;97373.59;5003045;28;20240;-69
2021/05/15 05:12:16;;;;;;;1.73;1.67;;;;;;;8.27;100.00;97363.69;5003148;28;20264;-70
2021/05/15 05:14:43;;;;;;;1.70;1.70;;;;;;;8.32;100.00;97369.28;5002461;28;20577;-71
2021/05/15 05:17:09;;;;;;;2.00;1.90;;;;;;;8.25;100.00;97368.31;5003105;28;20224;-71
2021/05/15 05:19:36;;;;;;;2.03;1.93;;;;;;;8.17;100.00;97361.19;5002188;28;20220;-71
2021/05/15 05:22:03;;;;;;;3.23;2.00;;;;;;;8.14;100.00;97369.44;5002244;28;20229;-72
2021/05/15 05:24:30;;;;;;;2.20;2.10;;;;;;;8.31;100.00;97369.44;5002901;28;20254;-68
2021/05/15 05:26:56;;;;;;;1.97;1.87;;;;;;;8.26;100.00;97368.13;5003189;28;20728;-71
2021/05/15 05:29:23;;;;;;;2.53;2.17;;;;;;;8.19;100.00;97369.78;5000769;28;20224;-71
2021/05/15 05:31:51;;;;;;;2.20;2.00;;;;;;;8.22;100.00;97382.66;5000916;28;20221;-71
2021/05/15 05:34:18;;;;;;;2.10;2.00;;;;;;;8.13;100.00;97369.59;5000947;28;20205;-70
2021/05/15 05:36:45;;;;;;;2.17;2.07;;;;;;;8.21;100.00;97374.91;5000161;28;20701;-71
2021/05/15 05:39:14;;;;;;;2.50;2.30;;;;;;;8.36;100.00;97375.06;5000712;28;20201;-71
2021/05/15 05:41:41;;;;;;;2.23;2.00;;;;;;;8.30;100.00;97373.91;5002417;28;20228;-71
2021/05/15 05:44:07;;;;;;;2.33;2.23;;;;;;;8.51;100.00;97373.44;5002368;28;20378;-71
2021/05/15 05:46:33;;;;;;;4.23;2.20;;;;;;;8.59;100.00;97380.53;5000374;28;20267;-71
2021/05/15 05:49:00;;;;;;;2.77;2.50;;;;;;;8.78;100.00;97375.88;5000158;28;20584;-71
2021/05/15 05:51:26;;;;;;;2.40;2.20;;;;;;;9.05;96.41;97379.13;5000798;28;20228;-72
2021/05/15 05:53:53;;;;;;;2.70;2.40;;;;;;;9.37;92.04;97375.53;5002280;28;20380;-76
2021/05/15 05:56:20;;;;;;;2.00;1.77;;;;;;;9.32;92.50;97375.25;5002610;28;20207;-75
2021/05/15 05:58:46;;;;;;;1.77;1.67;;;;;;;9.38;89.45;97377.19;5002810;28;20205;-75
2021/05/15 06:01:13;;;;;;;1.47;1.47;;;;;;;9.35;90.85;97379.38;5000594;28;20233;-73
2021/05/15 06:03:39;;;;;;;1.83;1.73;;;;;;;9.66;87.76;97375.91;4996376;28;20208;-76
2021/05/15 06:06:05;;;;;;;1.30;1.30;;;;;;;9.72;87.29;97375.25;5000839;28;20696;-74
2021/05/15 06:08:31;;;;;;;1.60;1.47;;;;;;;9.90;85.13;97384.72;5001488;28;20229;-73
2021/05/15 06:10:58;;;;;;;1.70;1.60;;;;;;;9.96;85.12;97379.56;5002708;28;20227;-76
2021/05/15 06:13:26;;;;;;;1.60;1.50;;;;;;;10.08;83.74;97380.00;5001631;28;20212;-75
2021/05/15 06:15:52;;;;;;;1.77;1.63;;;;;;;10.26;83.52;97378.84;5001652;28;20634;-75
2021/05/15 06:18:18;;;;;;;1.70;1.60;;;;;;;10.39;82.96;97375.63;5002641;28;20590;-69
2021/05/15 06:20:45;;;;;;;2.20;2.10;;;;;;;10.70;81.71;97369.44;5001153;28;20233;-70
2021/05/15 06:23:11;;;;;;;1.63;1.40;;;;;;;10.58;82.27;97376.97;5001782;28;20213;-68
2021/05/15 06:25:37;;;;;;;2.40;1.43;;;;;;;10.65;81.94;97369.94;4999996;28;20205;-70
2021/05/15 06:28:04;;;;;;;2.30;2.10;;;;;;;10.89;80.32;97369.91;5001001;28;20721;-69
2021/05/15 06:30:31;;;;;;;1.20;1.20;;;;;;;10.85;78.92;97383.50;4999037;28;20704;-70
2021/05/15 06:32:57;;;;;;;1.37;1.27;;;;;;;10.82;78.59;97370.63;4999421;28;20395;-71
2021/05/15 06:35:24;;;;;;;1.37;1.30;;;;;;;11.00;77.95;97374.78;5000380;28;20213;-69
2021/05/15 06:37:50;;;;;;;1.57;1.57;;;;;;;10.78;77.69;97374.63;5001457;28;20209;-69
2021/05/15 06:40:16;;;;;;;1.30;1.30;;;;;;;10.88;75.81;97373.53;5000966;28;20217;-68
2021/05/15 06:42:43;;;;;;;2.07;1.40;;;;;;;10.65;76.19;97372.59;5000602;28;20205;-70
2021/05/15 06:45:10;;;;;;;1.00;1.00;;;;;;;10.60;74.45;97369.69;5001369;28;20263;-70
2021/05/15 06:47:38;;;;;;;1.80;1.63;;;;;;;10.65;76.05;97372.59;5000909;28;20278;-69
2021/05/15 06:50:05;;;;;;;0.90;0.90;;;;;;;10.81;74.96;97373.47;5001977;28;20335;-69
2021/05/15 06:52:32;;;;;;;1.50;1.17;;;;;;;10.85;74.87;97378.22;5001156;28;20371;-70
2021/05/15 06:54:58;;;;;;;1.40;1.40;;;;;;;10.95;75.50;97374.47;5002162;28;20232;-70
2021/05/15 06:57:24;;;;;;;3.50;1.20;;;;;;;11.19;74.93;97373.41;5001349;28;20619;-70
2021/05/15 06:59:51;;;;;;;1.30;1.20;;;;;;;11.37;74.31;97375.69;5001977;28;20597;-72
2021/05/15 07:02:17;;;;;;;1.17;1.07;;;;;;;11.57;72.51;97372.44;5000245;28;20238;-71
2021/05/15 07:04:44;;;;;;;1.07;0.90;;;;;;;11.91;70.49;97378.13;5001797;28;20201;-70
2021/05/15 07:07:11;;;;;;;1.20;1.20;;;;;;;11.85;68.61;97379.72;5001953;28;20302;-69
2021/05/15 07:09:37;;;;;;;2.13;1.93;;;;;;;12.18;68.11;97373.13;5001964;28;20205;-70
2021/05/15 07:12:04;;;;;;;1.00;1.00;;;;;;;12.46;67.92;97370.50;5002016;28;20323;-68
2021/05/15 07:14:30;;;;;;;0.80;0.80;;;;;;;12.09;67.26;97359.13;5002079;28;20692;-70
2021/05/15 07:16:56;;;;;;;1.13;1.10;;;;;;;12.06;65.29;97368.31;4998425;28;20256;-70
2021/05/15 07:19:23;;;;;;;1.00;1.00;;;;;;;12.17;64.45;97367.00;5000375;28;20255;-71
2021/05/15 07:21:50;;;;;;;0.90;0.90;;;;;;;11.99;64.54;97364.75;5000488;28;20227;-67
2021/05/15 07:24:16;;;;;;;1.07;1.07;;;;;;;11.96;64.11;97359.81;4999804;28;20230;-71
2021/05/15 07:26:42;;;;;;;1.13;0.93;;;;;;;12.11;65.28;97352.63;5002055;28;20717;-76
2021/05/15 07:29:08;;;;;;;0.93;0.93;;;;;;;12.33;65.13;97357.97;5002483;28;20543;-74
2021/05/15 07:31:35;;;;;;;0.83;0.83;;;;;;;12.31;65.17;97354.63;5001905;28;20236;-75
2021/05/15 07:34:01;;;;;;;1.00;1.00;;;;;;;12.54;64.57;97356.28;4998701;28;20255;-76
2021/05/15 07:36:27;;;;;;;2.23;1.20;;;;;;;12.76;62.23;97350.94;5004148;28;20247;-75
2021/05/15 07:38:55;;;;;;;0.80;0.80;;;;;;;12.83;62.25;97346.47;5004547;28;20209;-75
2021/05/15 07:41:22;;;;;;;0.83;0.83;;;;;;;13.15;60.18;97355.66;5004716;28;20229;-74
2021/05/15 07:43:49;;;;;;;2.03;0.90;;;;;;;13.56;59.00;97347.91;5004613;28;20772;-75
2021/05/15 07:46:16;;;;;;;1.50;0.90;;;;;;;13.59;59.16;97335.03;5003289;28;20225;-74
2021/05/15 07:48:43;;;;;;;0.87;0.87;;;;;;;13.41;57.91;97340.00;5005484;28;20292;-74
2021/05/15 07:51:10;;;;;;;0.93;0.93;;;;;;;13.60;58.10;97334.00;5004694;28;20269;-72
2021/05/15 07:53:37;;;;;;;1.03;1.00;;;;;;;13.25;59.76;97339.34;5005884;28;20564;-73
2021/05/15 07:56:05;;;;;;;1.43;1.33;;;;;;;13.30;60.72;97330.78;5006102;28;20209;-72
2021/05/15 07:58:31;;;;;;;1.43;0.80;;;;;;;13.50;60.10;97328.25;5005642;28;20211;-71
2021/05/15 08:00:58;;;;;;;0.80;0.80;;;;;;;13.16;61.62;97332.56;5003674;28;20349;-75
2021/05/15 08:03:24;;;;;;;1.10;1.10;;;;;;;13.08;60.52;97330.88;5010092;28;20208;-75
2021/05/15 08:05:50;;;;;;;1.63;1.00;;;;;;;12.81;61.48;97327.22;5005564;28;20298;-71
2021/05/15 08:08:18;;;;;;;0.90;0.90;;;;;;;12.98;62.56;97325.91;5006279;28;20239;-76
2021/05/15 08:10:44;;;;;;;1.37;1.03;;;;;;;13.51;59.81;97323.72;5006574;28;20236;-74
2021/05/15 08:13:11;;;;;;;0.90;0.90;;;;;;;13.62;60.48;97315.16;5004279;28;20690;-76
2021/05/15 08:15:37;;;;;;;1.23;1.13;;;;;;;13.80;58.22;97309.25;5004182;28;20247;-75
2021/05/15 08:18:03;;;;;;;1.00;0.90;;;;;;;14.04;57.32;97312.38;5011135;28;20310;-75
2021/05/15 08:20:30;;;;;;;0.70;0.70;;;;;;;14.07;56.15;97316.50;5005574;28;20207;-72
2021/05/15 08:22:56;;;;;;;1.20;0.70;;;;;;;14.60;54.14;97316.50;5009084;28;20299;-71
2021/05/15 08:25:25;;;;;;;1.10;1.10;;;;;;;14.30;54.70;97308.91;5008217;28;20616;-75
2021/05/15 08:27:53;;;;;;;0.80;0.80;;;;;;;15.02;52.55;97304.75;5011445;28;20601;-75
2021/05/15 08:30:21;;;;;;;0.97;0.90;;;;;;;15.20;52.50;97288.06;5005181;28;20474;-75
2021/05/15 08:32:50;;;;;;;0.43;0.43;;;;;;;15.54;50.75;97286.06;5008086;28;20212;-74
2021/05/15 08:35:17;;;;;;;0.90;0.90;;;;;;;15.55;49.92;97289.59;5009537;28;20212;-75
2021/05/15 08:37:43;;;;;;;0.47;0.47;;;;;;;15.32;50.24;97286.38;5005476;28;20236;-75
2021/05/15 08:40:10;;;;;;;0.70;0.70;;;;;;;15.26;48.94;97291.75;5005157;28;20266;-75
2021/05/15 08:42:39;;;;;;;0.80;0.80;;;;;;;15.18;50.66;97285.63;5007272;28;20275;-76
2021/05/15 08:45:08;;;;;;;1.50;0.60;;;;;;;15.53;49.24;97288.94;5011042;28;20213;-75
2021/05/15 08:47:37;;;;;;;1.27;1.17;;;;;;;14.88;51.27;97294.13;5009649;28;20221;-74
2021/05/15 08:50:07;;;;;;;0.90;0.90;;;;;;;15.49;50.30;97289.38;5006147;28;20201;-76
2021/05/15 08:52:34;;;;;;;1.20;1.20;;;;;;;15.31;50.68;97291.94;5007671;28;20225;-74
2021/05/15 08:55:01;;;;;;;0.70;0.70;;;;;;;15.59;50.11;97288.13;5007747;28;20277;-74
2021/05/15 08:57:27;;;;;;;1.53;0.83;;;;;;;15.63;48.39;97286.66;5003641;28;20609;-75
2021/05/15 08:59:53;;;;;;;0.83;0.70;;;;;;;15.75;48.59;97289.47;5004142;28;20300;-72
2021/05/15 09:02:20;;;;;;;0.80;0.80;;;;;;;15.27;48.71;97294.19;5002700;28;20243;-76
2021/05/15 09:05:08;;;;;;;1.67;0.80;;;;;;;15.31;47.86;97284.72;5002397;28;20209;-75
2021/05/15 09:07:36;;;;;;;0.90;0.90;;;;;;;15.25;50.53;97285.59;5012478;28;20209;-75
2021/05/15 09:10:05;;;;;;;1.00;1.00;;;;;;;15.07;49.72;97280.13;5008349;28;20205;-75
2021/05/15 09:12:32;;;;;;;0.70;0.60;;;;;;;14.91;49.66;97282.19;5004751;28;20229;-75
2021/05/15 09:15:01;;;;;;;0.87;0.77;;;;;;;15.26;49.42;97281.06;5007796;28;20651;-75
2021/05/15 09:17:29;;;;;;;0.80;0.80;;;;;;;14.83;50.47;97274.44;5005416;28;20275;-76
2021/05/15 09:19:56;;;;;;;1.50;0.57;;;;;;;14.99;50.21;97278.50;5000033;28;20245;-76
2021/05/15 09:22:28;;;;;;;0.80;0.80;;;;;;;14.75;50.40;97283.47;5004590;28;20220;-75
2021/05/15 09:25:03;;;;;;;1.03;1.03;;;;;;;14.65;51.81;97272.38;5014744;28;20220;-76
2021/05/15 09:27:34;;;;;;;1.53;0.70;;;;;;;14.50;51.22;97272.59;5006017;28;20577;-75
2021/05/15 09:30:03;;;;;;;2.30;0.90;;;;;;;14.03;51.79;97270.78;5012106;28;20792;-75
2021/05/15 09:32:32;;;;;;;0.80;0.80;;;;;;;14.17;52.52;97269.75;5007233;28;20248;-76
2021/05/15 09:35:01;;;;;;;1.00;0.90;;;;;;;14.08;52.35;97264.84;5003135;28;20212;-75
2021/05/15 09:37:34;;;;;;;0.90;0.90;;;;;;;13.74;52.89;97270.13;5001018;28;20208;-76
2021/05/15 09:40:20;;;;;;;1.10;1.00;;;;;;;13.56;55.62;97258.22;5000898;28;20197;-75
2021/05/15 09:43:07;;;;;;;1.30;1.20;;;;;;;13.84;53.73;97254.59;5007128;28;20217;-75
2021/05/15 09:45:37;;;;;;;1.10;1.10;;;;;;;14.34;53.25;97258.69;5013762;28;20223;-75
2021/05/15 09:48:06;;;;;;;2.87;2.67;;;;;;;14.82;52.14;97254.97;5002615;28;20592;-74
2021/05/15 09:50:36;;;;;;;2.67;2.47;;;;;;;15.30;50.22;97248.41;5005258;28;20208;-76
2021/05/15 09:53:10;;;;;;;5.10;4.70;;;;;;;15.58;47.94;97236.53;5011115;28;20204;-75
2021/05/15 09:55:39;;;;;;;1.17;1.00;;;;;;;15.47;47.48;97230.03;5002291;28;20676;-75
2021/05/15 09:58:07;;;;;;;1.40;1.33;;;;;;;15.48;48.30;97223.66;5003568;28;20685;-75
2021/05/15 10:00:43;;;;;;;1.50;1.20;;;;;;;15.59;47.46;97214.16;5012289;28;20740;-75
2021/05/15 10:03:21;;;;;;;1.20;1.20;;;;;;;15.57;47.26;97218.09;5007910;28;20204;-75
2021/05/15 10:06:02;;;;;;;0.90;0.90;;;;;;;15.77;46.49;97212.59;5009924;28;20201;-75
2021/05/15 10:08:32;;;;;;;0.90;0.90;;;;;;;15.90;46.47;97214.38;5009452;28;20227;-74
2021/05/15 10:11:00;;;;;;;1.47;1.37;;;;;;;16.07;45.08;97206.63;5006053;28;20228;-76
2021/05/15 10:13:28;;;;;;;0.93;0.93;;;;;;;15.99;45.76;97196.22;5007211;28;20204;-75
2021/05/15 10:15:55;;;;;;;0.50;0.50;;;;;;;16.16;45.12;97202.66;5004148;28;20209;-75
2021/05/15 10:18:22;;;;;;;0.83;0.80;;;;;;;16.04;45.09;97196.38;5003974;28;20212;-76
2021/05/15 10:20:50;;;;;;;0.80;0.60;;;;;;;16.49;45.43;97201.53;5001797;28;20680;-75
2021/05/15 10:23:20;;;;;;;1.10;0.50;;;;;;;16.78;43.85;97182.28;5008532;28;20213;-75
2021/05/15 10:25:50;;;;;;;1.00;0.90;;;;;;;17.06;43.22;97184.44;5004546;28;20201;-75
2021/05/15 10:28:31;;;;;;;1.13;1.03;;;;;;;17.53;41.61;97190.19;5009271;28;20252;-75
2021/05/15 10:31:07;;;;;;;0.80;0.70;;;;;;;16.44;43.39;97185.31;5000750;28;21481;-75
2021/05/15 10:33:35;;;;;;;1.17;0.80;;;;;;;16.73;44.51;97174.13;5005484;28;20205;-74
2021/05/15 10:36:04;;;;;;;1.67;0.80;;;;;;;17.26;42.23;97180.69;5008253;28;20263;-75
2021/05/15 10:38:36;;;;;;;0.80;0.63;;;;;;;17.69;41.91;97173.44;5002577;28;20201;-75
2021/05/15 10:41:18;;;;;;;0.60;0.60;;;;;;;17.83;41.27;97181.31;5004839;28;20234;-74
2021/05/15 10:43:48;;;;;;;0.70;0.70;;;;;;;17.61;41.67;97171.13;5003309;28;20824;-75
2021/05/15 10:46:18;;;;;;;0.70;0.70;;;;;;;17.41;42.06;97169.53;5005954;28;20299;-73
2021/05/15 10:48:59;;;;;;;0.80;0.80;;;;;;;17.26;41.78;97159.25;5003373;28;20519;-75
2021/05/15 10:51:39;;;;;;;0.80;0.80;;;;;;;17.08;42.03;97152.09;5004248;28;20224;-75
2021/05/15 10:54:08;;;;;;;0.70;0.63;;;;;;;16.78;43.29;97153.66;5004093;28;20205;-75
2021/05/15 10:57:00;;;;;;;0.63;0.63;;;;;;;17.02;42.85;97145.78;5001072;28;20364;-75
2021/05/15 10:59:28;;;;;;;2.00;0.83;;;;;;;16.87;43.18;97140.00;5001702;28;20205;-76
2021/05/15 11:01:58;;;;;;;0.63;0.63;;;;;;;17.30;42.72;97138.19;5009737;28;20819;-75
2021/05/15 11:04:29;;;;;;;0.73;0.73;;;;;;;17.71;42.16;97149.13;5008182;28;20635;-74
2021/05/15 11:07:02;;;;;;;1.20;0.83;;;;;;;18.51;40.49;97142.38;5001940;28;20233;-73
2021/05/15 11:09:31;;;;;;;0.60;0.60;;;;;;;18.83;40.99;97129.59;5005868;28;20284;-75
2021/05/15 11:12:08;;;;;;;0.50;0.50;;;;;;;20.37;37.01;97130.53;5004340;28;20238;-75
2021/05/15 11:14:36;;;;;;;0.77;0.77;;;;;;;19.95;36.68;97121.06;5009373;28;20740;-75
2021/05/15 11:17:11;;;;;;;0.40;0.40;;;;;;;21.11;36.22;97123.91;5012342;28;20339;-75
2021/05/15 11:19:39;;;;;;;0.60;0.60;;;;;;;20.61;35.94;97114.97;5006182;28;20204;-74
2021/05/15 11:22:07;;;;;;;1.03;1.00;;;;;;;21.34;35.21;97118.47;5010963;28;20228;-74
2021/05/15 11:24:35;;;;;;;1.43;1.37;;;;;;;20.74;33.45;97108.41;5010697;28;20846;-75
2021/05/15 11:27:14;;;;;;;1.57;1.47;;;;;;;19.91;34.78;97107.31;5011913;28;20233;-73
2021/05/15 11:29:42;;;;;;;0.97;0.93;;;;;;;19.52;35.48;97105.34;5012140;28;20209;-75
2021/05/15 11:32:11;;;;;;;0.50;0.50;;;;;;;19.39;36.77;97097.59;5018637;28;20432;-74
2021/05/15 11:34:40;;;;;;;0.87;0.60;;;;;;;19.95;36.96;97092.31;5010522;28;20216;-75
2021/05/15 11:37:09;;;;;;;1.13;0.37;;;;;;;20.14;36.04;97093.91;5011415;28;20674;-76
2021/05/15 11:39:37;;;;;;;0.87;0.50;;;;;;;20.38;36.52;97083.75;5005609;28;20205;-75